sensor_id;sensor_type;location;lat;lon;timestamp;P1;durP1;ratioP1;P2;durP2;ratioP2
74995;SDS011;63545;51.690;5.202;2023-11-19T00:00:48;29.20;;;13.23;;
74995;SDS011;63545;51.690;5.202;2023-11-19T00:03:14;27.47;;;12.63;;
74995;SDS011;63545;51.690;5.202;2023-11-19T00:05:39;28.07;;;11.70;;
74995;SDS011;63545;51.690;5.202;2023-11-19T00:08:04;25.30;;;11.40;;
74995;SDS011;63545;51.690;5.202;2023-11-19T00:10:31;30.50;;;10.60;;
74995;SDS011;63545;51.690;5.202;2023-11-19T00:12:56;20.83;;;10.10;;
74995;SDS011;63545;51.690;5.202;2023-11-19T00:15:22;24.37;;;9.80;;
74995;SDS011;63545;51.690;5.202;2023-11-19T00:17:49;19.88;;;8.48;;
74995;SDS011;63545;51.690;5.202;2023-11-19T00:20:15;24.20;;;9.80;;
74995;SDS011;63545;51.690;5.202;2023-11-19T00:22:44;24.95;;;9.18;;
74995;SDS011;63545;51.690;5.202;2023-11-19T00:25:13;26.40;;;10.38;;
74995;SDS011;63545;51.690;5.202;2023-11-19T00:27:38;24.07;;;9.03;;
74995;SDS011;63545;51.690;5.202;2023-11-19T00:30:04;27.73;;;8.30;;
74995;SDS011;63545;51.690;5.202;2023-11-19T00:32:31;32.20;;;8.38;;
74995;SDS011;63545;51.690;5.202;2023-11-19T00:34:57;29.17;;;8.32;;
74995;SDS011;63545;51.690;5.202;2023-11-19T00:37:22;30.67;;;8.67;;
74995;SDS011;63545;51.690;5.202;2023-11-19T00:39:47;24.50;;;8.37;;
74995;SDS011;63545;51.690;5.202;2023-11-19T00:42:13;27.87;;;8.17;;
74995;SDS011;63545;51.690;5.202;2023-11-19T00:44:39;28.50;;;8.50;;
74995;SDS011;63545;51.690;5.202;2023-11-19T00:47:04;34.47;;;8.40;;
74995;SDS011;63545;51.690;5.202;2023-11-19T00:49:30;30.27;;;8.23;;
74995;SDS011;63545;51.690;5.202;2023-11-19T00:51:57;30.77;;;9.02;;
74995;SDS011;63545;51.690;5.202;2023-11-19T00:54:23;41.20;;;8.40;;
74995;SDS011;63545;51.690;5.202;2023-11-19T00:56:50;33.35;;;7.78;;
74995;SDS011;63545;51.690;5.202;2023-11-19T00:59:17;22.73;;;7.07;;
74995;SDS011;63545;51.690;5.202;2023-11-19T01:01:42;30.00;;;7.23;;
74995;SDS011;63545;51.690;5.202;2023-11-19T01:04:08;32.85;;;7.47;;
74995;SDS011;63545;51.690;5.202;2023-11-19T01:06:33;31.73;;;6.73;;
74995;SDS011;63545;51.690;5.202;2023-11-19T01:08:59;27.57;;;6.77;;
74995;SDS011;63545;51.690;5.202;2023-11-19T01:11:25;27.10;;;5.28;;
74995;SDS011;63545;51.690;5.202;2023-11-19T01:13:51;28.10;;;6.00;;
74995;SDS011;63545;51.690;5.202;2023-11-19T01:16:17;26.80;;;5.90;;
74995;SDS011;63545;51.690;5.202;2023-11-19T01:18:43;28.90;;;5.85;;
74995;SDS011;63545;51.690;5.202;2023-11-19T01:21:09;29.43;;;5.40;;
74995;SDS011;63545;51.690;5.202;2023-11-19T01:23:35;35.35;;;5.88;;
74995;SDS011;63545;51.690;5.202;2023-11-19T01:26:00;41.43;;;5.73;;
74995;SDS011;63545;51.690;5.202;2023-11-19T01:28:26;29.23;;;4.93;;
74995;SDS011;63545;51.690;5.202;2023-11-19T01:30:51;38.10;;;5.40;;
74995;SDS011;63545;51.690;5.202;2023-11-19T01:33:17;35.97;;;5.55;;
74995;SDS011;63545;51.690;5.202;2023-11-19T01:35:42;31.33;;;5.50;;
74995;SDS011;63545;51.690;5.202;2023-11-19T01:38:07;33.07;;;5.50;;
74995;SDS011;63545;51.690;5.202;2023-11-19T01:40:33;34.45;;;5.75;;
74995;SDS011;63545;51.690;5.202;2023-11-19T01:42:59;35.23;;;5.60;;
74995;SDS011;63545;51.690;5.202;2023-11-19T01:45:28;33.75;;;5.13;;
74995;SDS011;63545;51.690;5.202;2023-11-19T01:47:55;29.00;;;5.17;;
74995;SDS011;63545;51.690;5.202;2023-11-19T01:50:21;31.02;;;4.88;;
74995;SDS011;63545;51.690;5.202;2023-11-19T01:52:47;30.42;;;4.20;;
74995;SDS011;63545;51.690;5.202;2023-11-19T01:55:13;39.97;;;4.43;;
74995;SDS011;63545;51.690;5.202;2023-11-19T01:57:39;41.55;;;5.45;;
74995;SDS011;63545;51.690;5.202;2023-11-19T02:00:06;37.33;;;5.20;;
74995;SDS011;63545;51.690;5.202;2023-11-19T02:02:32;42.65;;;5.45;;
74995;SDS011;63545;51.690;5.202;2023-11-19T02:04:57;35.00;;;4.60;;
74995;SDS011;63545;51.690;5.202;2023-11-19T02:07:22;37.03;;;4.53;;
74995;SDS011;63545;51.690;5.202;2023-11-19T02:09:50;54.53;;;5.07;;
74995;SDS011;63545;51.690;5.202;2023-11-19T02:12:16;36.03;;;4.80;;
74995;SDS011;63545;51.690;5.202;2023-11-19T02:14:41;30.07;;;4.40;;
74995;SDS011;63545;51.690;5.202;2023-11-19T02:17:06;34.57;;;4.47;;
74995;SDS011;63545;51.690;5.202;2023-11-19T02:19:32;43.63;;;5.53;;
74995;SDS011;63545;51.690;5.202;2023-11-19T02:21:57;30.53;;;4.40;;
74995;SDS011;63545;51.690;5.202;2023-11-19T02:24:22;42.33;;;5.30;;
74995;SDS011;63545;51.690;5.202;2023-11-19T02:29:24;40.33;;;4.90;;
74995;SDS011;63545;51.690;5.202;2023-11-19T02:31:49;45.23;;;5.30;;
74995;SDS011;63545;51.690;5.202;2023-11-19T02:34:15;48.30;;;5.57;;
74995;SDS011;63545;51.690;5.202;2023-11-19T02:36:41;40.28;;;5.20;;
74995;SDS011;63545;51.690;5.202;2023-11-19T02:39:07;36.30;;;4.80;;
74995;SDS011;63545;51.690;5.202;2023-11-19T02:41:36;43.97;;;4.70;;
74995;SDS011;63545;51.690;5.202;2023-11-19T02:44:01;40.58;;;4.88;;
74995;SDS011;63545;51.690;5.202;2023-11-19T02:46:26;43.33;;;5.43;;
74995;SDS011;63545;51.690;5.202;2023-11-19T02:48:52;34.73;;;5.07;;
74995;SDS011;63545;51.690;5.202;2023-11-19T02:51:17;48.13;;;5.70;;
74995;SDS011;63545;51.690;5.202;2023-11-19T02:53:43;45.53;;;5.30;;
74995;SDS011;63545;51.690;5.202;2023-11-19T02:56:09;44.37;;;5.50;;
74995;SDS011;63545;51.690;5.202;2023-11-19T02:58:42;42.10;;;5.25;;
74995;SDS011;63545;51.690;5.202;2023-11-19T03:01:09;42.42;;;5.35;;
74995;SDS011;63545;51.690;5.202;2023-11-19T03:03:44;21.05;;;3.97;;
74995;SDS011;63545;51.690;5.202;2023-11-19T03:06:14;46.08;;;4.95;;
74995;SDS011;63545;51.690;5.202;2023-11-19T03:08:39;37.47;;;4.90;;
74995;SDS011;63545;51.690;5.202;2023-11-19T03:11:05;45.10;;;5.30;;
74995;SDS011;63545;51.690;5.202;2023-11-19T03:13:30;48.37;;;5.50;;
74995;SDS011;63545;51.690;5.202;2023-11-19T03:15:55;39.23;;;4.63;;
74995;SDS011;63545;51.690;5.202;2023-11-19T03:18:21;36.77;;;4.83;;
74995;SDS011;63545;51.690;5.202;2023-11-19T03:20:46;39.57;;;5.37;;
74995;SDS011;63545;51.690;5.202;2023-11-19T03:23:12;46.58;;;5.22;;
74995;SDS011;63545;51.690;5.202;2023-11-19T03:25:37;37.13;;;5.57;;
74995;SDS011;63545;51.690;5.202;2023-11-19T03:28:03;43.00;;;5.45;;
74995;SDS011;63545;51.690;5.202;2023-11-19T03:30:32;37.40;;;4.20;;
74995;SDS011;63545;51.690;5.202;2023-11-19T03:32:58;40.42;;;4.60;;
74995;SDS011;63545;51.690;5.202;2023-11-19T03:35:27;41.95;;;4.78;;
74995;SDS011;63545;51.690;5.202;2023-11-19T03:37:53;41.93;;;5.23;;
74995;SDS011;63545;51.690;5.202;2023-11-19T03:40:18;71.20;;;5.50;;
74995;SDS011;63545;51.690;5.202;2023-11-19T03:42:44;45.85;;;5.50;;
74995;SDS011;63545;51.690;5.202;2023-11-19T03:45:10;39.33;;;4.57;;
74995;SDS011;63545;51.690;5.202;2023-11-19T03:47:36;45.10;;;4.80;;
74995;SDS011;63545;51.690;5.202;2023-11-19T03:50:01;44.53;;;4.80;;
74995;SDS011;63545;51.690;5.202;2023-11-19T03:52:28;44.50;;;4.63;;
74995;SDS011;63545;51.690;5.202;2023-11-19T03:54:54;42.30;;;4.53;;
74995;SDS011;63545;51.690;5.202;2023-11-19T03:57:20;44.30;;;5.20;;
74995;SDS011;63545;51.690;5.202;2023-11-19T03:59:46;57.47;;;6.53;;
74995;SDS011;63545;51.690;5.202;2023-11-19T04:02:11;52.10;;;5.37;;
74995;SDS011;63545;51.690;5.202;2023-11-19T04:04:37;57.50;;;5.60;;
74995;SDS011;63545;51.690;5.202;2023-11-19T04:07:03;51.72;;;4.95;;
74995;SDS011;63545;51.690;5.202;2023-11-19T04:09:29;57.33;;;6.05;;
74995;SDS011;63545;51.690;5.202;2023-11-19T04:11:55;62.17;;;5.93;;
74995;SDS011;63545;51.690;5.202;2023-11-19T04:14:20;51.15;;;5.90;;
74995;SDS011;63545;51.690;5.202;2023-11-19T04:16:46;51.80;;;5.53;;
74995;SDS011;63545;51.690;5.202;2023-11-19T04:19:11;48.33;;;4.87;;
74995;SDS011;63545;51.690;5.202;2023-11-19T04:21:37;46.37;;;5.60;;
74995;SDS011;63545;51.690;5.202;2023-11-19T04:24:05;53.85;;;5.75;;
74995;SDS011;63545;51.690;5.202;2023-11-19T04:26:31;46.63;;;4.83;;
74995;SDS011;63545;51.690;5.202;2023-11-19T04:28:56;42.75;;;4.85;;
74995;SDS011;63545;51.690;5.202;2023-11-19T04:31:21;53.83;;;5.40;;
74995;SDS011;63545;51.690;5.202;2023-11-19T04:33:47;48.40;;;5.00;;
74995;SDS011;63545;51.690;5.202;2023-11-19T04:36:12;48.17;;;5.07;;
74995;SDS011;63545;51.690;5.202;2023-11-19T04:38:39;46.42;;;5.45;;
74995;SDS011;63545;51.690;5.202;2023-11-19T04:41:05;45.63;;;5.60;;
74995;SDS011;63545;51.690;5.202;2023-11-19T04:43:31;44.08;;;4.85;;
74995;SDS011;63545;51.690;5.202;2023-11-19T04:45:57;39.10;;;5.70;;
74995;SDS011;63545;51.690;5.202;2023-11-19T04:48:22;58.58;;;5.57;;
74995;SDS011;63545;51.690;5.202;2023-11-19T04:50:48;50.30;;;5.47;;
74995;SDS011;63545;51.690;5.202;2023-11-19T04:53:13;51.03;;;5.22;;
74995;SDS011;63545;51.690;5.202;2023-11-19T04:55:40;52.83;;;6.00;;
74995;SDS011;63545;51.690;5.202;2023-11-19T04:58:06;57.03;;;5.97;;
74995;SDS011;63545;51.690;5.202;2023-11-19T05:00:32;48.40;;;5.07;;
74995;SDS011;63545;51.690;5.202;2023-11-19T05:02:57;33.27;;;4.47;;
74995;SDS011;63545;51.690;5.202;2023-11-19T05:05:22;48.90;;;5.68;;
74995;SDS011;63545;51.690;5.202;2023-11-19T05:07:48;53.70;;;5.90;;
74995;SDS011;63545;51.690;5.202;2023-11-19T05:10:13;43.33;;;6.00;;
74995;SDS011;63545;51.690;5.202;2023-11-19T05:12:39;47.97;;;4.73;;
74995;SDS011;63545;51.690;5.202;2023-11-19T05:15:04;41.27;;;5.80;;
74995;SDS011;63545;51.690;5.202;2023-11-19T05:17:30;52.60;;;5.90;;
74995;SDS011;63545;51.690;5.202;2023-11-19T05:19:56;50.40;;;4.85;;
74995;SDS011;63545;51.690;5.202;2023-11-19T05:22:21;47.30;;;5.90;;
74995;SDS011;63545;51.690;5.202;2023-11-19T05:24:47;49.97;;;5.90;;
74995;SDS011;63545;51.690;5.202;2023-11-19T05:27:13;54.45;;;5.85;;
74995;SDS011;63545;51.690;5.202;2023-11-19T05:29:39;49.47;;;4.97;;
74995;SDS011;63545;51.690;5.202;2023-11-19T05:32:06;45.33;;;5.17;;
74995;SDS011;63545;51.690;5.202;2023-11-19T05:34:32;48.17;;;5.82;;
74995;SDS011;63545;51.690;5.202;2023-11-19T05:36:57;48.47;;;5.07;;
74995;SDS011;63545;51.690;5.202;2023-11-19T05:39:22;48.47;;;4.97;;
74995;SDS011;63545;51.690;5.202;2023-11-19T05:41:49;57.92;;;6.25;;
74995;SDS011;63545;51.690;5.202;2023-11-19T05:44:14;51.30;;;6.07;;
74995;SDS011;63545;51.690;5.202;2023-11-19T05:46:40;52.83;;;5.90;;
74995;SDS011;63545;51.690;5.202;2023-11-19T05:49:08;51.63;;;6.05;;
74995;SDS011;63545;51.690;5.202;2023-11-19T05:51:36;53.13;;;5.30;;
74995;SDS011;63545;51.690;5.202;2023-11-19T05:54:08;49.30;;;5.93;;
74995;SDS011;63545;51.690;5.202;2023-11-19T05:56:35;47.70;;;5.33;;
74995;SDS011;63545;51.690;5.202;2023-11-19T05:59:00;55.50;;;6.75;;
74995;SDS011;63545;51.690;5.202;2023-11-19T06:01:29;50.15;;;5.78;;
74995;SDS011;63545;51.690;5.202;2023-11-19T06:03:54;51.95;;;5.15;;
74995;SDS011;63545;51.690;5.202;2023-11-19T06:06:20;49.27;;;5.63;;
74995;SDS011;63545;51.690;5.202;2023-11-19T06:08:45;50.37;;;5.33;;
74995;SDS011;63545;51.690;5.202;2023-11-19T06:11:11;58.85;;;6.53;;
74995;SDS011;63545;51.690;5.202;2023-11-19T06:13:40;48.37;;;5.10;;
74995;SDS011;63545;51.690;5.202;2023-11-19T06:16:05;45.78;;;5.22;;
74995;SDS011;63545;51.690;5.202;2023-11-19T06:18:31;62.37;;;6.47;;
74995;SDS011;63545;51.690;5.202;2023-11-19T06:20:56;49.83;;;5.33;;
74995;SDS011;63545;51.690;5.202;2023-11-19T06:23:21;53.77;;;5.53;;
74995;SDS011;63545;51.690;5.202;2023-11-19T06:25:47;55.17;;;5.57;;
74995;SDS011;63545;51.690;5.202;2023-11-19T06:28:12;54.67;;;5.40;;
74995;SDS011;63545;51.690;5.202;2023-11-19T06:30:38;50.43;;;6.17;;
74995;SDS011;63545;51.690;5.202;2023-11-19T06:33:04;40.50;;;5.05;;
74995;SDS011;63545;51.690;5.202;2023-11-19T06:35:29;56.63;;;5.57;;
74995;SDS011;63545;51.690;5.202;2023-11-19T06:38:00;52.45;;;5.43;;
74995;SDS011;63545;51.690;5.202;2023-11-19T06:40:26;51.47;;;5.80;;
74995;SDS011;63545;51.690;5.202;2023-11-19T06:42:52;54.85;;;5.32;;
74995;SDS011;63545;51.690;5.202;2023-11-19T06:45:17;55.43;;;5.33;;
74995;SDS011;63545;51.690;5.202;2023-11-19T06:47:42;44.37;;;4.90;;
74995;SDS011;63545;51.690;5.202;2023-11-19T06:50:08;48.60;;;5.60;;
74995;SDS011;63545;51.690;5.202;2023-11-19T06:52:34;53.25;;;5.47;;
74995;SDS011;63545;51.690;5.202;2023-11-19T06:54:59;56.27;;;5.70;;
74995;SDS011;63545;51.690;5.202;2023-11-19T06:57:25;54.00;;;5.15;;
74995;SDS011;63545;51.690;5.202;2023-11-19T06:59:51;51.37;;;5.63;;
74995;SDS011;63545;51.690;5.202;2023-11-19T07:02:16;52.30;;;5.90;;
74995;SDS011;63545;51.690;5.202;2023-11-19T07:04:41;61.13;;;6.20;;
74995;SDS011;63545;51.690;5.202;2023-11-19T07:07:07;47.27;;;5.10;;
74995;SDS011;63545;51.690;5.202;2023-11-19T07:09:32;42.07;;;4.67;;
74995;SDS011;63545;51.690;5.202;2023-11-19T07:11:58;46.15;;;5.93;;
74995;SDS011;63545;51.690;5.202;2023-11-19T07:14:25;44.23;;;5.33;;
74995;SDS011;63545;51.690;5.202;2023-11-19T07:16:51;49.90;;;5.63;;
74995;SDS011;63545;51.690;5.202;2023-11-19T07:19:16;47.83;;;6.07;;
74995;SDS011;63545;51.690;5.202;2023-11-19T07:21:42;53.77;;;5.33;;
74995;SDS011;63545;51.690;5.202;2023-11-19T07:24:09;44.88;;;4.65;;
74995;SDS011;63545;51.690;5.202;2023-11-19T07:26:35;52.78;;;5.30;;
74995;SDS011;63545;51.690;5.202;2023-11-19T07:29:00;50.20;;;5.40;;
74995;SDS011;63545;51.690;5.202;2023-11-19T07:31:26;46.53;;;5.60;;
74995;SDS011;63545;51.690;5.202;2023-11-19T07:33:52;52.95;;;5.30;;
74995;SDS011;63545;51.690;5.202;2023-11-19T07:36:18;49.05;;;5.43;;
74995;SDS011;63545;51.690;5.202;2023-11-19T07:38:45;41.80;;;4.53;;
74995;SDS011;63545;51.690;5.202;2023-11-19T07:41:10;46.35;;;5.20;;
74995;SDS011;63545;51.690;5.202;2023-11-19T07:43:38;45.05;;;5.18;;
74995;SDS011;63545;51.690;5.202;2023-11-19T07:46:10;52.47;;;5.77;;
74995;SDS011;63545;51.690;5.202;2023-11-19T07:48:37;43.33;;;5.68;;
74995;SDS011;63545;51.690;5.202;2023-11-19T07:51:03;49.50;;;5.20;;
74995;SDS011;63545;51.690;5.202;2023-11-19T07:53:29;47.13;;;5.20;;
74995;SDS011;63545;51.690;5.202;2023-11-19T07:55:54;44.67;;;5.30;;
74995;SDS011;63545;51.690;5.202;2023-11-19T07:58:19;39.40;;;4.57;;
74995;SDS011;63545;51.690;5.202;2023-11-19T08:00:45;52.00;;;5.20;;
74995;SDS011;63545;51.690;5.202;2023-11-19T08:03:10;40.72;;;4.68;;
74995;SDS011;63545;51.690;5.202;2023-11-19T08:05:36;47.53;;;5.90;;
74995;SDS011;63545;51.690;5.202;2023-11-19T08:08:01;48.93;;;5.47;;
74995;SDS011;63545;51.690;5.202;2023-11-19T08:10:26;36.17;;;4.77;;
74995;SDS011;63545;51.690;5.202;2023-11-19T08:12:52;48.67;;;5.63;;
74995;SDS011;63545;51.690;5.202;2023-11-19T08:15:17;55.03;;;5.20;;
74995;SDS011;63545;51.690;5.202;2023-11-19T08:17:42;52.90;;;6.00;;
74995;SDS011;63545;51.690;5.202;2023-11-19T08:20:08;49.77;;;5.53;;
74995;SDS011;63545;51.690;5.202;2023-11-19T08:22:38;41.90;;;4.93;;
74995;SDS011;63545;51.690;5.202;2023-11-19T08:25:04;39.90;;;4.28;;
74995;SDS011;63545;51.690;5.202;2023-11-19T08:27:30;47.03;;;5.15;;
74995;SDS011;63545;51.690;5.202;2023-11-19T08:29:55;50.73;;;5.43;;
74995;SDS011;63545;51.690;5.202;2023-11-19T08:32:24;51.25;;;4.95;;
74995;SDS011;63545;51.690;5.202;2023-11-19T08:34:50;51.60;;;5.35;;
74995;SDS011;63545;51.690;5.202;2023-11-19T08:37:16;38.70;;;4.63;;
74995;SDS011;63545;51.690;5.202;2023-11-19T08:39:45;45.28;;;4.72;;
74995;SDS011;63545;51.690;5.202;2023-11-19T08:42:11;46.60;;;4.72;;
74995;SDS011;63545;51.690;5.202;2023-11-19T08:44:37;49.47;;;5.63;;
74995;SDS011;63545;51.690;5.202;2023-11-19T08:47:02;43.27;;;5.47;;
74995;SDS011;63545;51.690;5.202;2023-11-19T08:49:27;46.53;;;5.07;;
74995;SDS011;63545;51.690;5.202;2023-11-19T08:51:53;43.97;;;5.27;;
74995;SDS011;63545;51.690;5.202;2023-11-19T08:54:18;43.10;;;5.25;;
74995;SDS011;63545;51.690;5.202;2023-11-19T08:56:45;36.37;;;4.83;;
74995;SDS011;63545;51.690;5.202;2023-11-19T08:59:10;49.85;;;5.78;;
74995;SDS011;63545;51.690;5.202;2023-11-19T09:01:36;42.43;;;5.00;;
74995;SDS011;63545;51.690;5.202;2023-11-19T09:04:01;39.03;;;4.87;;
74995;SDS011;63545;51.690;5.202;2023-11-19T09:06:26;37.53;;;4.30;;
74995;SDS011;63545;51.690;5.202;2023-11-19T09:08:52;50.08;;;5.50;;
74995;SDS011;63545;51.690;5.202;2023-11-19T09:11:18;47.73;;;5.23;;
74995;SDS011;63545;51.690;5.202;2023-11-19T09:13:43;44.60;;;5.23;;
74995;SDS011;63545;51.690;5.202;2023-11-19T09:16:11;40.50;;;4.53;;
74995;SDS011;63545;51.690;5.202;2023-11-19T09:18:37;52.03;;;5.53;;
74995;SDS011;63545;51.690;5.202;2023-11-19T09:21:02;42.17;;;5.23;;
74995;SDS011;63545;51.690;5.202;2023-11-19T09:23:28;44.37;;;5.90;;
74995;SDS011;63545;51.690;5.202;2023-11-19T09:25:55;43.15;;;5.43;;
74995;SDS011;63545;51.690;5.202;2023-11-19T09:28:21;46.03;;;6.07;;
74995;SDS011;63545;51.690;5.202;2023-11-19T09:30:46;48.78;;;6.53;;
74995;SDS011;63545;51.690;5.202;2023-11-19T09:33:11;53.13;;;5.97;;
74995;SDS011;63545;51.690;5.202;2023-11-19T09:35:37;42.53;;;5.37;;
74995;SDS011;63545;51.690;5.202;2023-11-19T09:38:02;44.53;;;5.20;;
74995;SDS011;63545;51.690;5.202;2023-11-19T09:40:30;46.53;;;5.68;;
74995;SDS011;63545;51.690;5.202;2023-11-19T09:42:56;46.47;;;5.55;;
74995;SDS011;63545;51.690;5.202;2023-11-19T09:45:22;43.67;;;5.93;;
74995;SDS011;63545;51.690;5.202;2023-11-19T09:47:51;42.00;;;5.50;;
74995;SDS011;63545;51.690;5.202;2023-11-19T09:50:18;37.50;;;4.87;;
74995;SDS011;63545;51.690;5.202;2023-11-19T09:52:44;36.97;;;5.10;;
74995;SDS011;63545;51.690;5.202;2023-11-19T09:55:10;43.03;;;5.80;;
74995;SDS011;63545;51.690;5.202;2023-11-19T09:57:35;36.70;;;4.80;;
74995;SDS011;63545;51.690;5.202;2023-11-19T10:00:03;38.55;;;5.20;;
74995;SDS011;63545;51.690;5.202;2023-11-19T10:02:33;39.38;;;5.10;;
74995;SDS011;63545;51.690;5.202;2023-11-19T10:05:01;36.85;;;4.68;;
74995;SDS011;63545;51.690;5.202;2023-11-19T10:07:30;35.45;;;4.65;;
74995;SDS011;63545;51.690;5.202;2023-11-19T10:09:57;31.37;;;3.83;;
74995;SDS011;63545;51.690;5.202;2023-11-19T10:12:25;43.58;;;4.55;;
74995;SDS011;63545;51.690;5.202;2023-11-19T10:14:51;38.75;;;5.10;;
74995;SDS011;63545;51.690;5.202;2023-11-19T10:17:17;37.93;;;4.83;;
74995;SDS011;63545;51.690;5.202;2023-11-19T10:19:42;37.47;;;4.97;;
74995;SDS011;63545;51.690;5.202;2023-11-19T10:22:07;39.38;;;5.00;;
74995;SDS011;63545;51.690;5.202;2023-11-19T10:24:33;33.03;;;4.40;;
74995;SDS011;63545;51.690;5.202;2023-11-19T10:26:59;39.75;;;4.60;;
74995;SDS011;63545;51.690;5.202;2023-11-19T10:29:28;33.77;;;5.00;;
74995;SDS011;63545;51.690;5.202;2023-11-19T10:31:57;34.17;;;4.75;;
74995;SDS011;63545;51.690;5.202;2023-11-19T10:34:26;32.95;;;4.70;;
74995;SDS011;63545;51.690;5.202;2023-11-19T10:36:52;42.00;;;5.38;;
74995;SDS011;63545;51.690;5.202;2023-11-19T10:39:17;34.30;;;4.63;;
74995;SDS011;63545;51.690;5.202;2023-11-19T10:41:43;38.23;;;4.80;;
74995;SDS011;63545;51.690;5.202;2023-11-19T10:44:08;40.63;;;5.53;;
74995;SDS011;63545;51.690;5.202;2023-11-19T10:46:40;37.43;;;5.20;;
74995;SDS011;63545;51.690;5.202;2023-11-19T10:49:06;42.33;;;5.43;;
74995;SDS011;63545;51.690;5.202;2023-11-19T10:51:35;36.90;;;5.10;;
74995;SDS011;63545;51.690;5.202;2023-11-19T10:54:04;37.28;;;5.45;;
74995;SDS011;63545;51.690;5.202;2023-11-19T10:56:31;37.87;;;5.63;;
74995;SDS011;63545;51.690;5.202;2023-11-19T10:59:00;35.42;;;5.00;;
74995;SDS011;63545;51.690;5.202;2023-11-19T11:01:32;45.70;;;5.43;;
74995;SDS011;63545;51.690;5.202;2023-11-19T11:04:15;43.83;;;5.15;;
74995;SDS011;63545;51.690;5.202;2023-11-19T11:06:47;33.80;;;4.50;;
74995;SDS011;63545;51.690;5.202;2023-11-19T11:09:12;45.93;;;5.17;;
74995;SDS011;63545;51.690;5.202;2023-11-19T11:11:41;44.88;;;5.45;;
74995;SDS011;63545;51.690;5.202;2023-11-19T11:14:12;31.03;;;4.63;;
74995;SDS011;63545;51.690;5.202;2023-11-19T11:16:42;35.13;;;4.72;;
74995;SDS011;63545;51.690;5.202;2023-11-19T11:19:09;38.00;;;5.10;;
74995;SDS011;63545;51.690;5.202;2023-11-19T11:21:37;27.20;;;4.22;;
74995;SDS011;63545;51.690;5.202;2023-11-19T11:32:16;32.05;;;4.13;;
74995;SDS011;63545;51.690;5.202;2023-11-19T11:37:44;24.23;;;3.95;;
74995;SDS011;63545;51.690;5.202;2023-11-19T11:40:15;40.43;;;4.20;;
74995;SDS011;63545;51.690;5.202;2023-11-19T11:42:41;30.17;;;3.28;;
74995;SDS011;63545;51.690;5.202;2023-11-19T11:45:10;23.10;;;3.88;;
74995;SDS011;63545;51.690;5.202;2023-11-19T11:50:08;26.90;;;3.75;;
74995;SDS011;63545;51.690;5.202;2023-11-19T11:52:47;34.80;;;4.00;;
74995;SDS011;63545;51.690;5.202;2023-11-19T11:57:51;29.83;;;4.90;;
74995;SDS011;63545;51.690;5.202;2023-11-19T12:03:19;28.13;;;3.85;;
74995;SDS011;63545;51.690;5.202;2023-11-19T12:05:47;34.03;;;4.38;;
74995;SDS011;63545;51.690;5.202;2023-11-19T12:08:13;29.10;;;4.18;;
74995;SDS011;63545;51.690;5.202;2023-11-19T12:10:47;28.90;;;4.23;;
74995;SDS011;63545;51.690;5.202;2023-11-19T12:13:17;30.63;;;3.92;;
74995;SDS011;63545;51.690;5.202;2023-11-19T12:18:23;35.03;;;4.75;;
74995;SDS011;63545;51.690;5.202;2023-11-19T12:20:49;33.95;;;4.57;;
74995;SDS011;63545;51.690;5.202;2023-11-19T12:23:15;36.33;;;5.33;;
74995;SDS011;63545;51.690;5.202;2023-11-19T12:25:40;31.73;;;4.50;;
74995;SDS011;63545;51.690;5.202;2023-11-19T12:28:05;27.07;;;4.33;;
74995;SDS011;63545;51.690;5.202;2023-11-19T12:30:31;42.47;;;5.00;;
74995;SDS011;63545;51.690;5.202;2023-11-19T12:32:56;34.35;;;4.95;;
74995;SDS011;63545;51.690;5.202;2023-11-19T12:35:22;33.73;;;4.43;;
74995;SDS011;63545;51.690;5.202;2023-11-19T12:37:49;41.08;;;5.43;;
74995;SDS011;63545;51.690;5.202;2023-11-19T12:40:19;30.37;;;4.70;;
74995;SDS011;63545;51.690;5.202;2023-11-19T12:42:54;24.40;;;3.95;;
74995;SDS011;63545;51.690;5.202;2023-11-19T12:45:20;30.75;;;4.93;;
74995;SDS011;63545;51.690;5.202;2023-11-19T12:47:46;35.92;;;4.20;;
74995;SDS011;63545;51.690;5.202;2023-11-19T12:50:13;27.05;;;5.10;;
74995;SDS011;63545;51.690;5.202;2023-11-19T12:52:39;31.17;;;5.27;;
74995;SDS011;63545;51.690;5.202;2023-11-19T12:55:04;28.17;;;4.50;;
74995;SDS011;63545;51.690;5.202;2023-11-19T12:57:38;20.88;;;4.22;;
74995;SDS011;63545;51.690;5.202;2023-11-19T13:00:05;31.85;;;4.40;;
74995;SDS011;63545;51.690;5.202;2023-11-19T13:02:47;36.35;;;4.78;;
74995;SDS011;63545;51.690;5.202;2023-11-19T13:05:29;32.60;;;4.70;;
74995;SDS011;63545;51.690;5.202;2023-11-19T13:08:03;29.90;;;4.77;;
74995;SDS011;63545;51.690;5.202;2023-11-19T13:10:34;29.38;;;4.70;;
74995;SDS011;63545;51.690;5.202;2023-11-19T13:13:18;23.83;;;4.47;;
74995;SDS011;63545;51.690;5.202;2023-11-19T13:15:44;31.30;;;4.70;;
74995;SDS011;63545;51.690;5.202;2023-11-19T13:18:12;26.90;;;4.10;;
74995;SDS011;63545;51.690;5.202;2023-11-19T13:20:39;36.33;;;4.47;;
74995;SDS011;63545;51.690;5.202;2023-11-19T13:23:05;31.83;;;4.63;;
74995;SDS011;63545;51.690;5.202;2023-11-19T13:25:32;35.45;;;4.70;;
74995;SDS011;63545;51.690;5.202;2023-11-19T13:27:57;34.80;;;4.43;;
74995;SDS011;63545;51.690;5.202;2023-11-19T13:30:23;30.13;;;4.63;;
74995;SDS011;63545;51.690;5.202;2023-11-19T13:32:49;34.78;;;4.60;;
74995;SDS011;63545;51.690;5.202;2023-11-19T13:35:15;34.75;;;4.32;;
74995;SDS011;63545;51.690;5.202;2023-11-19T13:37:42;28.13;;;3.97;;
74995;SDS011;63545;51.690;5.202;2023-11-19T13:40:07;34.65;;;4.35;;
74995;SDS011;63545;51.690;5.202;2023-11-19T13:42:35;22.13;;;3.65;;
74995;SDS011;63545;51.690;5.202;2023-11-19T13:45:01;33.67;;;3.93;;
74995;SDS011;63545;51.690;5.202;2023-11-19T13:47:28;28.20;;;3.97;;
74995;SDS011;63545;51.690;5.202;2023-11-19T13:49:53;33.20;;;4.50;;
74995;SDS011;63545;51.690;5.202;2023-11-19T13:52:19;25.80;;;4.33;;
74995;SDS011;63545;51.690;5.202;2023-11-19T13:54:44;35.10;;;4.90;;
74995;SDS011;63545;51.690;5.202;2023-11-19T13:57:10;27.25;;;3.80;;
74995;SDS011;63545;51.690;5.202;2023-11-19T13:59:39;28.23;;;3.97;;
74995;SDS011;63545;51.690;5.202;2023-11-19T14:02:05;32.42;;;4.32;;
74995;SDS011;63545;51.690;5.202;2023-11-19T14:04:32;24.38;;;3.30;;
74995;SDS011;63545;51.690;5.202;2023-11-19T14:06:58;26.37;;;3.53;;
74995;SDS011;63545;51.690;5.202;2023-11-19T14:09:23;26.15;;;4.13;;
74995;SDS011;63545;51.690;5.202;2023-11-19T14:11:48;34.53;;;4.10;;
74995;SDS011;63545;51.690;5.202;2023-11-19T14:14:16;28.08;;;4.63;;
74995;SDS011;63545;51.690;5.202;2023-11-19T14:16:41;29.03;;;5.57;;
74995;SDS011;63545;51.690;5.202;2023-11-19T14:19:07;30.87;;;4.37;;
74995;SDS011;63545;51.690;5.202;2023-11-19T14:21:33;33.72;;;4.20;;
74995;SDS011;63545;51.690;5.202;2023-11-19T14:23:58;26.20;;;4.13;;
74995;SDS011;63545;51.690;5.202;2023-11-19T14:26:24;33.67;;;4.37;;
74995;SDS011;63545;51.690;5.202;2023-11-19T14:28:49;29.70;;;4.30;;
74995;SDS011;63545;51.690;5.202;2023-11-19T14:31:14;28.45;;;4.00;;
74995;SDS011;63545;51.690;5.202;2023-11-19T14:33:39;33.43;;;4.07;;
74995;SDS011;63545;51.690;5.202;2023-11-19T14:36:05;34.07;;;4.33;;
74995;SDS011;63545;51.690;5.202;2023-11-19T14:38:32;25.40;;;3.97;;
74995;SDS011;63545;51.690;5.202;2023-11-19T14:40:57;27.03;;;4.03;;
74995;SDS011;63545;51.690;5.202;2023-11-19T14:43:24;29.13;;;3.92;;
74995;SDS011;63545;51.690;5.202;2023-11-19T14:45:49;31.20;;;4.17;;
74995;SDS011;63545;51.690;5.202;2023-11-19T14:48:15;23.13;;;3.57;;
74995;SDS011;63545;51.690;5.202;2023-11-19T14:50:42;29.45;;;4.63;;
74995;SDS011;63545;51.690;5.202;2023-11-19T14:53:09;32.75;;;4.20;;